createdAt,value
2023-02-11T00:04:10.214Z,103465.75
2023-02-11T00:09:32.479Z,103449.28
2023-02-11T00:14:54.186Z,103444.31
2023-02-11T00:20:16.126Z,103447.44
2023-02-11T00:25:45.670Z,103435.00
2023-02-11T00:31:07.634Z,103427.03
2023-02-11T00:36:30.258Z,103405.25
2023-02-11T00:41:52.206Z,103397.28
2023-02-11T00:47:14.062Z,103399.38
2023-02-11T00:52:35.899Z,103399.97
2023-02-11T00:57:59.010Z,103397.56
2023-02-11T01:03:20.919Z,103388.56
2023-02-11T01:08:42.632Z,103407.34
2023-02-11T01:14:04.359Z,103407.72
2023-02-11T01:19:26.103Z,103413.44
2023-02-11T01:24:47.885Z,103416.56
2023-02-11T01:30:12.227Z,103422.50
2023-02-11T01:35:34.027Z,103427.38
2023-02-11T01:41:02.014Z,103428.41
2023-02-11T01:46:29.763Z,103420.50
2023-02-11T01:51:55.221Z,103415.13
2023-02-11T01:57:23.503Z,103416.38
2023-02-11T02:02:51.092Z,103413.75
2023-02-11T02:08:19.034Z,103394.75
2023-02-11T02:13:40.819Z,103394.91
2023-02-11T02:19:17.698Z,103400.66
2023-02-11T02:25:16.936Z,103404.69
2023-02-11T02:30:46.946Z,103402.47
2023-02-11T02:36:23.768Z,103403.31
2023-02-11T02:41:47.584Z,103403.69
2023-02-11T02:47:09.272Z,103403.00
2023-02-11T02:52:44.254Z,103409.63
2023-02-11T02:58:22.699Z,103397.84
2023-02-11T03:03:47.214Z,103385.19
2023-02-11T03:09:27.777Z,103383.47
2023-02-11T03:14:52.392Z,103381.94
2023-02-11T03:20:17.623Z,103387.69
2023-02-11T03:25:46.014Z,103401.72
2023-02-11T03:31:44.652Z,103388.94
2023-02-11T03:37:13.248Z,103391.03
2023-02-11T03:42:41.007Z,103375.59
2023-02-11T03:48:08.082Z,103373.03
2023-02-11T03:53:29.782Z,103376.00
2023-02-11T03:58:51.526Z,103380.66
2023-02-11T04:04:13.293Z,103368.91
2023-02-11T04:09:36.438Z,103371.19
2023-02-11T04:14:58.357Z,103384.19
2023-02-11T04:20:20.366Z,103396.34
2023-02-11T04:25:43.033Z,103387.13
2023-02-11T04:31:04.952Z,103390.31
2023-02-11T04:36:27.028Z,103384.94
2023-02-11T04:41:49.167Z,103377.66
2023-02-11T04:47:12.861Z,103375.09
2023-02-11T04:52:34.911Z,103377.84
2023-02-11T04:57:56.709Z,103379.94
2023-02-11T05:03:18.698Z,103366.28
2023-02-11T05:08:40.691Z,103373.03
2023-02-11T05:14:02.489Z,103354.72
2023-02-11T05:19:24.177Z,103352.97
2023-02-11T05:24:45.898Z,103337.53
2023-02-11T05:30:09.035Z,103351.41
2023-02-11T05:35:30.780Z,103363.53
2023-02-11T05:40:52.478Z,103361.78
2023-02-11T05:46:14.309Z,103370.31
2023-02-11T05:51:36.160Z,103381.75
2023-02-11T05:56:57.909Z,103366.00
2023-02-11T06:02:19.779Z,103369.13
2023-02-11T06:07:41.804Z,103359.09
2023-02-11T06:13:04.281Z,103350.97
2023-02-11T06:18:26.220Z,103356.69
2023-02-11T06:23:48.144Z,103349.41
2023-02-11T06:29:10.312Z,103351.34
2023-02-11T06:34:32.034Z,103363.28
2023-02-11T06:39:53.737Z,103350.09
2023-02-11T06:45:15.630Z,103355.88
2023-02-11T06:50:37.350Z,103356.28
2023-02-11T06:56:06.378Z,103347.38
2023-02-11T07:01:28.986Z,103350.81
2023-02-11T07:06:50.737Z,103357.34
2023-02-11T07:12:12.481Z,103351.72
2023-02-11T07:17:35.905Z,103371.38
2023-02-11T07:22:57.952Z,103380.75
2023-02-11T07:28:19.767Z,103396.25
2023-02-11T07:33:42.330Z,103408.06
2023-02-11T07:39:04.305Z,103404.28
2023-02-11T07:44:26.170Z,103411.44
2023-02-11T07:49:47.879Z,103413.13
2023-02-11T07:55:10.312Z,103411.91
2023-02-11T08:00:32.068Z,103415.59
2023-02-11T08:05:53.755Z,103413.25
2023-02-11T08:11:22.031Z,103417.41
2023-02-11T08:16:43.785Z,103425.50
2023-02-11T08:22:05.685Z,103439.47
2023-02-11T08:27:27.525Z,103440.00
2023-02-11T08:32:49.248Z,103435.69
2023-02-11T08:38:10.945Z,103447.66
2023-02-11T08:43:33.545Z,103442.28
2023-02-11T08:48:55.324Z,103453.56
2023-02-11T08:54:17.558Z,103447.19
2023-02-11T08:59:40.220Z,103465.50
2023-02-11T09:05:01.928Z,103467.75
2023-02-11T09:10:23.664Z,103463.97
2023-02-11T09:15:46.982Z,103466.00
2023-02-11T09:21:10.167Z,103478.56
2023-02-11T09:26:33.972Z,103465.47
2023-02-11T09:31:55.862Z,103471.38
2023-02-11T09:37:17.632Z,103479.16
2023-02-11T09:43:02.333Z,103481.59
2023-02-11T09:48:25.976Z,103467.50
2023-02-11T09:53:54.599Z,103472.25
2023-02-11T09:59:17.791Z,103481.25
2023-02-11T10:05:07.191Z,103479.38
2023-02-11T10:10:50.446Z,103495.50
2023-02-11T10:16:18.460Z,103504.34
2023-02-11T10:22:04.720Z,103501.88
2023-02-11T10:27:35.605Z,103504.06
2023-02-11T10:33:06.747Z,103505.69
2023-02-11T10:38:28.492Z,103512.78
2023-02-11T10:43:51.052Z,103518.03
2023-02-11T10:49:38.966Z,103509.03
2023-02-11T10:55:17.361Z,103521.19
2023-02-11T11:00:41.123Z,103516.94
2023-02-11T11:06:05.765Z,103523.94
2023-02-11T11:11:27.607Z,103528.53
2023-02-11T11:16:56.430Z,103530.66
2023-02-11T11:22:24.364Z,103522.06
2023-02-11T11:27:50.763Z,103525.06
2023-02-11T11:33:25.076Z,103525.25
2023-02-11T11:39:00.733Z,103533.47
2023-02-11T11:44:29.922Z,103521.53
2023-02-11T11:50:39.720Z,103534.50
2023-02-11T11:56:23.181Z,103526.19
2023-02-11T12:01:59.253Z,103524.34
2023-02-11T12:07:21.128Z,103523.50
2023-02-11T12:13:17.214Z,103537.25
2023-02-11T12:18:49.969Z,103529.63
2023-02-11T12:24:39.125Z,103521.59
2023-02-11T12:30:28.704Z,103523.81
2023-02-11T12:35:59.438Z,103531.59
2023-02-11T12:41:51.707Z,103526.56
2023-02-11T12:47:39.275Z,103536.50
2023-02-11T12:53:30.185Z,103518.91
2023-02-11T12:58:56.241Z,103514.50
2023-02-11T13:04:38.677Z,103509.59
2023-02-11T13:10:09.430Z,103503.22
2023-02-11T13:15:31.557Z,103504.13
2023-02-11T13:21:09.513Z,103501.03
2023-02-11T13:26:54.265Z,103487.94
2023-02-11T13:32:16.430Z,103481.13
2023-02-11T13:37:39.912Z,103483.75
2023-02-11T13:43:04.673Z,103491.88
2023-02-11T13:48:38.739Z,103489.03
2023-02-11T13:54:01.212Z,103485.28
2023-02-11T13:59:25.942Z,103482.09
2023-02-11T14:05:24.823Z,103491.41
2023-02-11T14:10:52.557Z,103485.50
2023-02-11T14:16:22.601Z,103480.88
2023-02-11T14:21:46.796Z,103488.03
2023-02-11T14:27:21.592Z,103489.59
2023-02-11T14:32:55.201Z,103494.19
2023-02-11T14:38:39.797Z,103497.47
2023-02-11T14:44:06.555Z,103494.34
2023-02-11T14:49:35.913Z,103495.13
2023-02-11T14:55:23.818Z,103493.13
2023-02-11T15:00:56.295Z,103503.94
2023-02-11T15:06:28.179Z,103506.25
2023-02-11T15:11:52.479Z,103506.47
2023-02-11T15:17:19.215Z,103506.84
2023-02-11T15:22:40.981Z,103503.38
2023-02-11T15:28:21.613Z,103510.66
2023-02-11T15:33:43.918Z,103509.34
2023-02-11T15:39:31.709Z,103523.03
2023-02-11T15:45:11.962Z,103511.06
2023-02-11T15:50:41.009Z,103517.50
2023-02-11T15:56:19.626Z,103532.91
2023-02-11T16:01:42.490Z,103524.09
2023-02-11T16:07:05.330Z,103528.81
2023-02-11T16:12:27.393Z,103524.78
2023-02-11T16:17:49.244Z,103527.34
2023-02-11T16:23:21.979Z,103522.25
2023-02-11T16:28:43.762Z,103518.47
2023-02-11T16:34:21.221Z,103527.13
2023-02-11T16:39:43.111Z,103531.66
2023-02-11T16:45:05.195Z,103531.16
2023-02-11T16:50:26.875Z,103534.25
2023-02-11T16:55:49.328Z,103538.16
2023-02-11T17:01:13.923Z,103549.50
2023-02-11T17:06:35.968Z,103539.81
2023-02-11T17:11:57.885Z,103547.94
2023-02-11T17:17:19.675Z,103559.59
2023-02-11T17:22:41.787Z,103566.94
2023-02-11T17:28:07.862Z,103563.84
2023-02-11T17:33:29.641Z,103580.84
2023-02-11T17:38:51.999Z,103576.22
2023-02-11T17:44:15.614Z,103587.94
2023-02-11T17:49:37.532Z,103587.47
2023-02-11T17:54:59.246Z,103588.06
2023-02-11T18:00:21.576Z,103591.44
2023-02-11T18:05:43.881Z,103598.63
2023-02-11T18:11:10.326Z,103606.97
2023-02-11T18:16:34.519Z,103610.03
2023-02-11T18:21:58.617Z,103613.19
2023-02-11T18:27:22.900Z,103619.13
2023-02-11T18:32:45.031Z,103626.88
2023-02-11T18:38:06.944Z,103620.59
2023-02-11T18:43:33.801Z,103624.56
2023-02-11T18:48:56.412Z,103622.22
2023-02-11T18:54:18.234Z,103627.81
2023-02-11T18:59:39.908Z,103633.16
2023-02-11T19:05:01.820Z,103630.19
2023-02-11T19:10:23.942Z,103644.13
2023-02-11T19:15:46.783Z,103645.38
2023-02-11T19:21:10.383Z,103639.13
2023-02-11T19:26:32.123Z,103652.00
2023-02-11T19:31:54.431Z,103652.88
2023-02-11T19:37:16.260Z,103652.44
2023-02-11T19:42:38.918Z,103648.97
2023-02-11T19:48:00.673Z,103652.16
2023-02-11T19:53:23.220Z,103657.06
2023-02-11T19:58:44.954Z,103655.34
2023-02-11T20:04:07.088Z,103658.13
2023-02-11T20:09:31.178Z,103663.69
2023-02-11T20:14:52.924Z,103670.53
2023-02-11T20:20:14.739Z,103674.16
2023-02-11T20:25:40.419Z,103672.03
2023-02-11T20:31:02.723Z,103674.78
2023-02-11T20:36:27.646Z,103686.56
2023-02-11T20:41:50.424Z,103686.50
2023-02-11T20:47:12.501Z,103692.41
2023-02-11T20:52:34.436Z,103701.09
2023-02-11T20:57:56.216Z,103709.50
2023-02-11T21:03:17.994Z,103716.38
2023-02-11T21:08:39.737Z,103721.28
2023-02-11T21:14:02.268Z,103720.31
2023-02-11T21:19:24.064Z,103721.47
2023-02-11T21:24:45.809Z,103725.19
2023-02-11T21:30:08.111Z,103722.56
2023-02-11T21:35:32.436Z,103722.91
2023-02-11T21:40:54.551Z,103723.28
2023-02-11T21:46:18.147Z,103728.94
2023-02-11T21:51:39.899Z,103734.38
2023-02-11T21:57:03.279Z,103745.34
2023-02-11T22:02:25.224Z,103743.06
2023-02-11T22:07:47.870Z,103738.91
2023-02-11T22:13:09.613Z,103733.63
2023-02-11T22:18:31.617Z,103734.81
2023-02-11T22:23:54.870Z,103738.09
2023-02-11T22:29:16.648Z,103739.22
2023-02-11T22:34:38.925Z,103739.31
2023-02-11T22:40:00.584Z,103738.34
2023-02-11T22:45:22.238Z,103735.66
2023-02-11T22:50:43.939Z,103732.97
2023-02-11T22:56:08.069Z,103746.78
2023-02-11T23:01:31.589Z,103756.53
2023-02-11T23:06:53.370Z,103750.91
2023-02-11T23:12:15.105Z,103753.38
2023-02-11T23:17:36.818Z,103754.63
2023-02-11T23:22:58.523Z,103749.63
2023-02-11T23:28:20.344Z,103760.44
2023-02-11T23:33:42.138Z,103753.50
2023-02-11T23:39:04.768Z,103755.59
2023-02-11T23:44:27.362Z,103750.59
2023-02-11T23:49:49.044Z,103753.91
2023-02-11T23:55:11.506Z,103754.97
